Time;durP1;ratioP1;P1;durP2;ratioP2;P2;SDS_P1;SDS_P2;PMS_P1;PMS_P2;Temp;Humidity;BMP_temperature;BMP_pressure;BME280_temperature;BME280_humidity;BME280_pressure;Samples;Min_cycle;Max_cycle;Signal;HPM_P1;HPM_P2
2022/09/22 00:01:20;;;;;;;7.72;2.95;;;8.80;99.90;;;;;;5073102;28;20044;-58
2022/09/22 00:03:49;;;;;;;8.57;2.80;;;7.70;99.90;;;;;;5073093;28;20066;-58
2022/09/22 00:06:28;;;;;;;8.88;3.05;;;8.10;99.90;;;;;;5073135;28;20033;-59
2022/09/22 00:08:59;;;;;;;8.35;3.40;;;7.40;99.90;;;;;;5073043;28;20056;-58
2022/09/22 00:11:30;;;;;;;7.28;3.03;;;7.70;99.90;;;;;;5073309;28;20047;-59
2022/09/22 00:14:05;;;;;;;7.50;3.17;;;7.70;99.90;;;;;;5071918;28;20109;-58
2022/09/22 00:16:41;;;;;;;9.05;3.40;;;7.70;99.90;;;;;;5072898;28;20049;-58
2022/09/22 00:19:11;;;;;;;8.85;3.28;;;7.70;99.90;;;;;;5073096;28;20074;-59
2022/09/22 00:21:37;;;;;;;9.90;3.20;;;7.80;99.90;;;;;;5073081;28;20465;-59
2022/09/22 00:24:08;;;;;;;9.15;3.38;;;7.70;99.90;;;;;;5072960;28;20128;-59
2022/09/22 00:26:34;;;;;;;7.82;3.30;;;7.70;99.90;;;;;;5072384;28;20052;-59
2022/09/22 00:29:01;;;;;;;13.20;3.38;;;;;;;;;;5071584;28;20056;-59
2022/09/22 00:31:28;;;;;;;7.63;2.97;;;7.60;99.90;;;;;;5072932;28;20078;-59
2022/09/22 00:33:55;;;;;;;5.85;2.60;;;7.60;99.90;;;;;;5072869;28;20049;-58
2022/09/22 00:36:24;;;;;;;8.55;2.92;;;7.60;99.90;;;;;;5074744;28;20044;-59
2022/09/22 00:38:52;;;;;;;7.95;3.38;;;7.50;99.90;;;;;;5076911;28;20040;-59
2022/09/22 00:41:26;;;;;;;8.52;3.50;;;7.60;99.90;;;;;;5076824;28;20398;-59
2022/09/22 00:44:17;;;;;;;7.68;3.40;;;7.50;99.90;;;;;;5075864;28;20049;-60
2022/09/22 00:46:50;;;;;;;15.13;4.18;;;7.10;99.90;;;;;;5076844;28;20115;-60
2022/09/22 00:49:18;;;;;;;10.98;3.53;;;7.70;99.90;;;;;;5076914;28;20410;-60
2022/09/22 00:51:44;;;;;;;9.25;3.28;;;7.60;99.90;;;;;;5076525;28;20042;-59
2022/09/22 00:54:14;;;;;;;7.00;3.33;;;5.90;99.90;;;;;;5075122;28;20131;-59
2022/09/22 00:56:53;;;;;;;7.10;3.40;;;7.40;99.90;;;;;;5075913;28;20132;-59
2022/09/22 00:59:22;;;;;;;11.63;4.25;;;7.40;99.90;;;;;;5076644;28;20075;-58
2022/09/22 01:01:48;;;;;;;9.27;3.75;;;7.40;99.90;;;;;;5076438;28;20051;-59
2022/09/22 01:04:16;;;;;;;8.98;4.05;;;7.10;99.90;;;;;;5075293;28;20097;-58
2022/09/22 01:06:45;;;;;;;13.68;4.35;;;7.30;99.90;;;;;;5075234;28;20119;-58
2022/09/22 01:09:14;;;;;;;11.48;4.15;;;7.40;99.90;;;;;;5075975;28;20492;-58
2022/09/22 01:11:41;;;;;;;7.05;4.10;;;8.10;99.90;;;;;;5074986;28;20041;-58
2022/09/22 01:14:27;;;;;;;9.55;4.25;;;7.30;99.90;;;;;;5076077;28;20143;-58
2022/09/22 01:17:28;;;;;;;8.93;4.40;;;7.30;99.90;;;;;;5074496;28;20056;-58
2022/09/22 01:20:26;;;;;;;9.52;4.50;;;7.30;99.90;;;;;;5075233;28;20079;-58
2022/09/22 01:23:06;;;;;;;11.55;4.78;;;7.40;99.90;;;;;;5076291;28;20137;-58
2022/09/22 01:26:13;;;;;;;9.20;4.55;;;7.50;99.90;;;;;;5075830;28;20086;-58
2022/09/22 01:28:45;;;;;;;11.70;4.78;;;7.20;99.90;;;;;;5075936;28;20488;-58
2022/09/22 01:31:40;;;;;;;22.23;5.70;;;7.30;99.90;;;;;;5074576;28;20036;-58
2022/09/22 01:34:33;;;;;;;14.52;5.15;;;7.00;99.90;;;;;;5075701;28;20079;-58
2022/09/22 01:37:03;;;;;;;13.52;5.43;;;7.20;99.90;;;;;;5075902;28;20044;-58
2022/09/22 01:39:47;;;;;;;11.13;6.05;;;7.40;99.90;;;;;;5075841;28;20048;-58
2022/09/22 01:42:27;;;;;;;10.10;5.65;;;7.20;99.90;;;;;;5075984;28;20056;-58
2022/09/22 01:45:07;;;;;;;10.18;6.10;;;7.40;99.90;;;;;;5075941;28;20098;-58
2022/09/22 01:47:42;;;;;;;11.65;6.28;;;7.10;99.90;;;;;;5073495;28;20048;-58
2022/09/22 01:50:28;;;;;;;11.05;6.43;;;7.60;99.90;;;;;;5074544;28;20044;-58
2022/09/22 01:53:00;;;;;;;14.80;6.40;;;6.20;99.90;;;;;;5075367;28;20044;-58
2022/09/22 01:55:31;;;;;;;10.77;6.22;;;7.00;99.90;;;;;;5075621;28;20048;-58
2022/09/22 01:58:17;;;;;;;13.32;6.22;;;7.60;99.90;;;;;;5075423;28;20477;-59
2022/09/22 02:01:17;;;;;;;9.43;6.18;;;7.10;99.90;;;;;;5075957;28;20052;-58
2022/09/22 02:04:10;;;;;;;9.55;5.95;;;7.10;99.90;;;;;;5074900;28;20048;-58
2022/09/22 02:06:51;;;;;;;8.38;5.93;;;5.80;99.90;;;;;;5074222;28;20537;-58
2022/09/22 02:09:20;;;;;;;12.05;6.18;;;7.10;99.90;;;;;;5074597;28;20045;-58
2022/09/22 02:11:46;;;;;;;11.05;5.93;;;7.10;99.90;;;;;;5075471;28;20040;-58
2022/09/22 02:14:13;;;;;;;12.95;6.00;;;6.90;99.90;;;;;;5075013;28;20465;-58
2022/09/22 02:16:38;;;;;;;10.35;5.85;;;8.00;99.90;;;;;;5075149;28;20420;-58
2022/09/22 02:19:32;;;;;;;12.82;6.15;;;7.40;99.90;;;;;;5075533;28;20045;-58
2022/09/22 02:21:59;;;;;;;12.20;6.20;;;6.90;99.90;;;;;;5074765;28;20044;-58
2022/09/22 02:24:29;;;;;;;12.10;6.90;;;6.80;99.90;;;;;;5075156;28;20438;-58
2022/09/22 02:26:57;;;;;;;12.48;7.10;;;6.00;99.90;;;;;;5073521;28;20037;-58
2022/09/22 02:29:27;;;;;;;15.10;7.05;;;6.50;99.90;;;;;;5074919;28;20033;-58
2022/09/22 02:31:55;;;;;;;15.77;7.72;;;6.80;99.90;;;;;;5075319;28;20138;-58
2022/09/22 02:34:21;;;;;;;13.77;8.20;;;;;;;;;;5074472;28;20511;-58
2022/09/22 02:37:06;;;;;;;14.93;8.50;;;6.10;99.90;;;;;;5074852;28;20036;-58
2022/09/22 02:39:46;;;;;;;15.63;8.18;;;7.00;99.90;;;;;;5074772;28;20040;-58
2022/09/22 02:42:56;;;;;;;16.13;7.93;;;6.80;99.90;;;;;;5073390;28;20128;-57
2022/09/22 02:45:27;;;;;;;15.35;8.10;;;7.00;99.90;;;;;;5074212;28;20059;-58
2022/09/22 02:47:58;;;;;;;11.85;8.23;;;7.00;99.90;;;;;;5073549;28;20423;-58
2022/09/22 02:50:27;;;;;;;14.48;8.57;;;6.80;99.90;;;;;;5073168;28;20040;-58
2022/09/22 02:53:01;;;;;;;15.85;8.52;;;6.00;99.90;;;;;;5074356;28;20492;-58
2022/09/22 02:55:27;;;;;;;13.98;8.57;;;;;;;;;;5074267;28;20051;-58
2022/09/22 02:57:53;;;;;;;14.90;9.07;;;6.90;99.90;;;;;;5074039;28;20047;-58
2022/09/22 03:00:22;;;;;;;14.07;8.75;;;6.80;99.90;;;;;;5073062;28;20043;-58
2022/09/22 03:02:49;;;;;;;14.10;9.60;;;;;;;;;;5073953;28;20040;-58
2022/09/22 03:05:15;;;;;;;18.67;9.57;;;7.10;99.90;;;;;;5074148;28;20098;-58
2022/09/22 03:07:40;;;;;;;14.27;9.13;;;6.80;99.90;;;;;;5073921;28;20133;-58
2022/09/22 03:10:10;;;;;;;18.05;9.00;;;6.70;99.90;;;;;;5074202;28;20037;-58
2022/09/22 03:12:41;;;;;;;13.63;9.10;;;6.60;99.90;;;;;;5074080;28;20036;-58
2022/09/22 03:15:13;;;;;;;13.45;8.65;;;6.60;99.90;;;;;;5072629;28;20083;-58
2022/09/22 03:17:40;;;;;;;12.40;8.68;;;6.60;99.90;;;;;;5073928;28;20048;-59
2022/09/22 03:20:10;;;;;;;12.43;8.95;;;6.40;99.90;;;;;;5074181;28;20387;-58
2022/09/22 03:22:36;;;;;;;14.75;9.23;;;;;;;;;;5072441;28;20044;-58
2022/09/22 03:25:03;;;;;;;14.55;9.80;;;6.80;99.90;;;;;;5073938;28;20048;-61
2022/09/22 03:27:29;;;;;;;14.98;10.13;;;;;;;;;;5072722;28;20045;-59
2022/09/22 03:29:55;;;;;;;17.30;9.73;;;6.50;99.90;;;;;;5073624;28;20036;-59
2022/09/22 03:32:21;;;;;;;15.68;9.38;;;6.50;99.90;;;;;;5073922;28;20036;-59
2022/09/22 03:34:47;;;;;;;14.77;10.65;;;4.90;99.90;;;;;;5073914;28;20070;-59
2022/09/22 03:37:14;;;;;;;17.58;10.82;;;6.40;99.90;;;;;;5073462;28;20041;-59
2022/09/22 03:39:40;;;;;;;18.38;10.95;;;;;;;;;;5073733;28;20064;-62
2022/09/22 03:42:07;;;;;;;18.98;12.13;;;6.40;99.90;;;;;;5073157;28;20040;-59
2022/09/22 03:44:34;;;;;;;14.43;11.45;;;;;;;;;;5073849;28;20085;-59
2022/09/22 03:47:00;;;;;;;18.20;11.25;;;6.40;99.90;;;;;;5073291;28;20051;-59
2022/09/22 03:49:27;;;;;;;15.75;10.85;;;6.30;99.90;;;;;;5073218;28;20089;-59
2022/09/22 03:51:53;;;;;;;17.30;11.20;;;;;;;;;;5072223;28;20041;-59
2022/09/22 03:54:23;;;;;;;17.45;10.98;;;6.30;99.90;;;;;;5073402;28;20044;-59
2022/09/22 03:56:50;;;;;;;16.25;10.63;;;7.10;99.90;;;;;;5073605;28;20059;-59
2022/09/22 03:59:16;;;;;;;17.63;10.60;;;6.00;99.90;;;;;;5073503;28;20115;-59
2022/09/22 04:01:42;;;;;;;18.70;11.80;;;5.60;99.90;;;;;;5072796;28;20561;-59
2022/09/22 04:04:08;;;;;;;19.08;11.95;;;6.00;99.90;;;;;;5073404;28;20495;-59
2022/09/22 04:06:35;;;;;;;18.92;13.70;;;6.20;99.90;;;;;;5073396;28;20064;-59
2022/09/22 04:09:01;;;;;;;19.45;13.13;;;6.50;99.90;;;;;;5072850;28;20558;-59
2022/09/22 04:11:27;;;;;;;20.02;12.63;;;5.30;99.90;;;;;;5071567;28;20044;-59
2022/09/22 04:13:53;;;;;;;16.80;12.57;;;5.80;99.90;;;;;;5072885;28;20183;-59
2022/09/22 04:16:19;;;;;;;18.48;12.98;;;6.40;99.90;;;;;;5073278;28;20052;-58
2022/09/22 04:18:46;;;;;;;19.45;13.20;;;;;;;;;;5073094;28;20374;-58
2022/09/22 04:21:12;;;;;;;20.67;13.38;;;6.40;99.90;;;;;;5073262;28;20041;-58
2022/09/22 04:23:38;;;;;;;19.88;13.93;;;;;;;;;;5073209;28;20041;-58
2022/09/22 04:26:04;;;;;;;18.55;13.38;;;6.30;99.90;;;;;;5073431;28;20119;-59
2022/09/22 04:28:30;;;;;;;17.73;13.27;;;6.30;99.90;;;;;;5072990;28;20107;-58
2022/09/22 04:30:58;;;;;;;17.30;12.48;;;6.20;99.90;;;;;;5072750;28;20488;-58
2022/09/22 04:33:24;;;;;;;20.55;12.05;;;6.00;99.90;;;;;;5072881;28;20044;-58
2022/09/22 04:35:51;;;;;;;16.38;11.27;;;6.10;99.90;;;;;;5072928;28;20090;-59
2022/09/22 04:38:18;;;;;;;17.55;11.43;;;6.10;99.90;;;;;;5072679;28;20036;-58
2022/09/22 04:40:44;;;;;;;17.92;11.52;;;6.30;99.90;;;;;;5072839;28;20040;-58
2022/09/22 04:43:10;;;;;;;16.20;12.55;;;6.20;99.90;;;;;;5072673;28;20040;-59
2022/09/22 04:45:37;;;;;;;18.15;13.07;;;6.20;99.90;;;;;;5072833;28;20086;-58
2022/09/22 04:48:07;;;;;;;19.10;12.88;;;6.70;99.90;;;;;;5072963;28;20044;-59
2022/09/22 04:50:33;;;;;;;21.23;13.05;;;6.30;99.90;;;;;;5072799;28;20044;-59
2022/09/22 04:52:59;;;;;;;22.42;13.18;;;6.00;99.90;;;;;;5072829;28;20048;-58
2022/09/22 04:55:25;;;;;;;19.27;13.55;;;6.40;99.90;;;;;;5072784;28;20045;-59
2022/09/22 04:57:55;;;;;;;18.60;12.80;;;6.20;99.90;;;;;;5072621;28;20067;-59
2022/09/22 05:00:27;;;;;;;19.30;13.23;;;6.10;99.90;;;;;;5072143;28;20071;-59
2022/09/22 05:02:57;;;;;;;19.50;12.35;;;6.70;99.90;;;;;;5072690;28;20075;-58
2022/09/22 05:05:26;;;;;;;21.08;12.38;;;6.20;99.90;;;;;;5071498;28;20500;-59
2022/09/22 05:07:53;;;;;;;17.40;13.25;;;5.90;99.90;;;;;;5072659;28;20497;-59
2022/09/22 05:10:23;;;;;;;18.95;13.23;;;6.00;99.90;;;;;;5072523;28;20463;-59
2022/09/22 05:12:48;;;;;;;20.55;13.93;;;6.60;99.90;;;;;;5072266;28;20391;-59
2022/09/22 05:15:14;;;;;;;22.55;14.05;;;;;;;;;;5072098;28;20135;-59
2022/09/22 05:17:48;;;;;;;16.05;12.15;;;6.00;99.90;;;;;;5072778;28;20049;-58
2022/09/22 05:20:14;;;;;;;16.73;12.05;;;6.10;99.90;;;;;;5072336;28;20400;-58
2022/09/22 05:22:40;;;;;;;16.90;11.60;;;6.00;99.90;;;;;;5074160;28;20052;-58
2022/09/22 05:25:09;;;;;;;18.27;11.40;;;6.00;99.90;;;;;;5075976;28;20421;-58
2022/09/22 05:27:36;;;;;;;20.58;11.23;;;5.90;99.90;;;;;;5075935;28;20037;-58
2022/09/22 05:30:04;;;;;;;16.27;12.20;;;5.80;99.90;;;;;;5076080;28;20385;-58
2022/09/22 05:32:30;;;;;;;16.65;12.20;;;5.90;99.90;;;;;;5075794;28;20555;-58
2022/09/22 05:34:56;;;;;;;19.30;13.20;;;;;;;;;;5076035;28;20163;-59
2022/09/22 05:37:25;;;;;;;19.52;13.07;;;;;;;;;;5075764;28;20419;-59
2022/09/22 05:39:51;;;;;;;22.50;13.82;;;6.00;99.90;;;;;;5075741;28;20400;-59
2022/09/22 05:42:16;;;;;;;21.42;14.65;;;6.10;99.90;;;;;;5075957;28;20037;-59
2022/09/22 05:44:42;;;;;;;21.52;13.55;;;6.70;99.90;;;;;;5075168;28;20535;-58
2022/09/22 05:47:08;;;;;;;23.30;15.15;;;;;;;;;;5075002;28;20451;-59
2022/09/22 05:49:34;;;;;;;21.45;15.25;;;6.50;99.90;;;;;;5074523;28;20047;-58
2022/09/22 05:52:02;;;;;;;22.70;15.00;;;;;;;;;;5074313;28;20051;-59
2022/09/22 05:54:28;;;;;;;19.45;13.77;;;7.10;99.90;;;;;;5073984;28;20550;-59
2022/09/22 05:56:54;;;;;;;17.73;13.25;;;6.50;99.90;;;;;;5075158;28;20090;-59
2022/09/22 05:59:30;;;;;;;17.88;14.15;;;;;;;;;;5074005;28;20044;-59
2022/09/22 06:01:56;;;;;;;21.65;13.40;;;;;;;;;;5071860;28;20064;-59
2022/09/22 06:04:22;;;;;;;19.42;12.13;;;;;;;;;;5074276;28;20093;-59
2022/09/22 06:06:48;;;;;;;19.67;13.07;;;7.40;99.90;;;;;;5074399;28;20040;-59
2022/09/22 06:09:15;;;;;;;15.18;9.80;;;8.00;99.90;;;;;;5061855;28;20049;-59
2022/09/22 06:11:41;;;;;;;17.42;10.27;;;;;;;;;;5071642;28;20044;-59
2022/09/22 06:14:07;;;;;;;13.50;9.38;;;;;;;;;;5070808;28;20049;-59
2022/09/22 06:16:33;;;;;;;12.77;8.68;;;10.40;99.90;;;;;;5072136;28;20170;-59
2022/09/22 06:18:58;;;;;;;14.43;8.68;;;11.30;99.90;;;;;;5071061;28;20528;-59
2022/09/22 06:21:28;;;;;;;10.57;7.70;;;;;;;;;;5072454;28;20148;-59
2022/09/22 06:23:56;;;;;;;10.32;6.60;;;;;;;;;;5071008;28;20401;-59
2022/09/22 06:26:23;;;;;;;11.88;7.40;;;13.10;99.90;;;;;;5072646;28;20048;-59
2022/09/22 06:28:50;;;;;;;11.15;7.88;;;14.10;99.90;;;;;;5073282;28;20119;-59
2022/09/22 06:31:20;;;;;;;13.52;7.03;;;14.50;99.90;;;;;;5073717;28;20032;-59
2022/09/22 06:33:47;;;;;;;13.30;7.63;;;14.20;99.90;;;;;;5073018;28;20097;-59
2022/09/22 06:36:19;;;;;;;13.23;6.90;;;14.20;99.90;;;;;;5073736;28;20036;-59
2022/09/22 06:38:45;;;;;;;13.45;8.18;;;;;;;;;;5073547;28;20045;-59
2022/09/22 06:41:14;;;;;;;19.48;11.73;;;13.10;99.90;;;;;;5073311;28;20036;-59
2022/09/22 06:43:41;;;;;;;11.55;8.52;;;;;;;;;;5072033;28;20511;-59
2022/09/22 06:46:09;;;;;;;13.05;8.63;;;;;;;;;;5073210;28;20040;-60
2022/09/22 06:48:38;;;;;;;12.98;8.20;;;11.80;99.90;;;;;;5073056;28;20037;-58
2022/09/22 06:51:04;;;;;;;20.52;8.98;;;11.70;99.90;;;;;;5071952;28;20045;-58
2022/09/22 06:53:30;;;;;;;14.65;8.48;;;11.90;99.90;;;;;;5073209;28;20442;-58
2022/09/22 06:56:04;;;;;;;15.20;9.07;;;10.10;99.90;;;;;;5070313;28;20089;-58
2022/09/22 06:58:31;;;;;;;14.35;8.52;;;11.60;99.90;;;;;;5059691;28;20072;-59
2022/09/22 07:01:05;;;;;;;15.65;9.00;;;;;;;;;;5071816;28;20216;-59
2022/09/22 07:03:39;;;;;;;13.63;9.07;;;11.10;99.90;;;;;;5071817;28;20559;-59
2022/09/22 07:06:05;;;;;;;14.52;9.00;;;12.00;99.90;;;;;;5054163;28;20032;-58
2022/09/22 07:08:33;;;;;;;14.13;8.85;;;10.80;99.90;;;;;;5073847;28;20047;-59
2022/09/22 07:11:02;;;;;;;16.70;9.18;;;11.40;99.90;;;;;;5072680;28;20044;-57
2022/09/22 07:13:29;;;;;;;14.85;8.88;;;10.60;99.90;;;;;;5073471;28;20040;-58
2022/09/22 07:16:03;;;;;;;15.07;9.57;;;11.00;99.90;;;;;;5073119;28;20463;-58
2022/09/22 07:18:30;;;;;;;13.35;9.18;;;;;;;;;;5072782;28;20404;-58
2022/09/22 07:21:04;;;;;;;12.95;9.05;;;11.00;99.90;;;;;;5073273;28;20391;-58
2022/09/22 07:23:34;;;;;;;12.85;8.65;;;;;;;;;;5072022;28;20068;-58
2022/09/22 07:26:05;;;;;;;14.43;8.68;;;11.00;99.90;;;;;;5072350;28;20489;-58
2022/09/22 07:28:33;;;;;;;13.45;8.40;;;11.00;99.90;;;;;;5073574;28;20036;-58
2022/09/22 07:31:13;;;;;;;15.48;8.65;;;11.00;99.90;;;;;;5073020;28;20535;-58
2022/09/22 07:33:41;;;;;;;13.18;8.55;;;11.30;99.90;;;;;;5073169;28;20119;-57
2022/09/22 07:36:22;;;;;;;14.90;8.40;;;11.20;99.90;;;;;;5053724;28;20045;-58
2022/09/22 07:38:50;;;;;;;13.15;9.10;;;11.20;99.90;;;;;;5071753;28;20110;-58
2022/09/22 07:41:22;;;;;;;12.45;7.90;;;11.00;99.90;;;;;;5072454;28;20068;-58
2022/09/22 07:43:52;;;;;;;12.40;7.60;;;11.40;99.90;;;;;;5071786;28;20041;-58
2022/09/22 07:46:18;;;;;;;13.55;8.45;;;11.40;99.90;;;;;;5071611;28;20126;-58
2022/09/22 07:48:47;;;;;;;12.32;7.78;;;10.50;99.90;;;;;;5069619;28;20043;-58
2022/09/22 07:51:20;;;;;;;10.27;6.95;;;11.30;99.90;;;;;;5071373;28;20029;-57
2022/09/22 07:54:06;;;;;;;19.55;12.98;;;11.40;99.90;;;;;;5067840;28;20123;-58
2022/09/22 07:56:41;;;;;;;17.15;8.43;;;11.50;99.90;;;;;;5062935;28;20040;-58
2022/09/22 07:59:15;;;;;;;12.85;7.28;;;11.70;99.90;;;;;;5072179;28;20040;-60
2022/09/22 08:01:46;;;;;;;15.52;6.88;;;11.00;99.90;;;;;;5071845;28;20447;-59
2022/09/22 08:04:15;;;;;;;11.40;6.30;;;11.70;99.90;;;;;;5070226;28;20032;-60
2022/09/22 08:06:48;;;;;;;13.40;6.70;;;11.80;99.90;;;;;;5070897;28;20090;-59
2022/09/22 08:09:17;;;;;;;9.20;5.60;;;12.90;99.90;;;;;;5071350;28;20105;-59
2022/09/22 08:11:44;;;;;;;13.20;5.72;;;13.70;99.90;;;;;;5072097;28;20075;-60
2022/09/22 08:14:12;;;;;;;13.85;6.15;;;15.00;99.90;;;;;;5071094;28;20419;-59
2022/09/22 08:16:39;;;;;;;11.27;6.03;;;16.00;99.90;;;;;;5071815;28;20036;-60
2022/09/22 08:19:12;;;;;;;11.35;5.40;;;16.90;99.90;;;;;;5072196;28;20093;-59
2022/09/22 08:21:40;;;;;;;8.32;5.10;;;16.90;99.90;;;;;;5073048;28;20395;-59
2022/09/22 08:24:08;;;;;;;12.38;4.80;;;17.10;99.90;;;;;;5071409;28;20037;-59
2022/09/22 08:26:40;;;;;;;9.50;4.93;;;17.20;99.90;;;;;;5073017;28;20079;-59
2022/09/22 08:29:07;;;;;;;8.15;4.43;;;17.90;99.90;;;;;;5071964;28;20040;-60
2022/09/22 08:31:35;;;;;;;7.93;4.20;;;17.90;99.90;;;;;;5071806;28;20135;-60
2022/09/22 08:34:04;;;;;;;9.63;4.82;;;18.40;99.90;;;;;;5071616;28;20503;-60
2022/09/22 08:36:32;;;;;;;8.70;4.70;;;18.10;99.90;;;;;;5071699;28;20033;-60
2022/09/22 08:39:02;;;;;;;10.35;4.75;;;18.30;99.90;;;;;;5071590;28;20124;-61
2022/09/22 08:41:28;;;;;;;11.00;4.45;;;;;;;;;;5072074;28;20105;-60
2022/09/22 08:44:25;;;;;;;12.30;4.40;;;19.00;99.90;;;;;;5071370;28;20075;-60
2022/09/22 08:46:54;;;;;;;8.07;4.43;;;18.80;99.90;;;;;;5067475;28;20084;-60
2022/09/22 08:52:19;;;;;;;6.93;4.00;;;19.00;99.90;;;;;;5071450;28;20400;-60
2022/09/22 08:54:45;;;;;;;8.93;4.10;;;;;;;;;;5071875;28;20083;-60
2022/09/22 08:57:21;;;;;;;12.30;4.70;;;19.10;99.90;;;;;;5073965;28;20048;-61
2022/09/22 09:00:11;;;;;;;7.22;4.03;;;19.10;99.90;;;;;;5075149;28;20033;-60
2022/09/22 09:02:42;;;;;;;6.07;3.72;;;19.40;99.90;;;;;;5073451;28;20037;-60
2022/09/22 09:05:19;;;;;;;6.97;3.70;;;19.60;99.90;;;;;;5073467;28;20067;-60
2022/09/22 09:07:57;;;;;;;8.98;3.95;;;19.70;99.90;;;;;;5075210;28;20052;-61
2022/09/22 09:10:27;;;;;;;7.85;3.80;;;;;;;;;;5074474;28;20519;-61
2022/09/22 09:13:16;;;;;;;8.18;4.03;;;20.00;99.90;;;;;;5074769;28;20040;-61
2022/09/22 09:16:15;;;;;;;7.00;3.78;;;19.70;99.90;;;;;;5073549;28;20059;-61
2022/09/22 09:18:49;;;;;;;9.63;3.72;;;20.30;99.90;;;;;;5073365;28;20051;-61
2022/09/22 09:21:23;;;;;;;8.27;3.85;;;20.20;99.90;;;;;;5073496;28;20123;-61
2022/09/22 09:23:53;;;;;;;7.75;3.55;;;20.30;99.90;;;;;;5073253;28;20452;-58
2022/09/22 09:26:19;;;;;;;11.88;4.03;;;20.30;99.90;;;;;;5075545;28;20040;-58
2022/09/22 09:28:56;;;;;;;8.75;3.55;;;19.80;99.90;;;;;;5075546;28;20036;-60
2022/09/22 09:31:33;;;;;;;11.40;4.40;;;19.90;99.90;;;;;;5075831;28;20102;-60
2022/09/22 09:34:04;;;;;;;13.85;3.80;;;19.70;99.90;;;;;;5074976;28;20044;-61
2022/09/22 09:36:40;;;;;;;7.88;3.40;;;19.50;99.90;;;;;;5074889;28;20110;-61
2022/09/22 09:39:24;;;;;;;8.57;3.45;;;19.50;99.90;;;;;;5074467;28;20037;-61
2022/09/22 09:41:50;;;;;;;8.07;3.70;;;;;;;;;;5072955;28;20032;-62
2022/09/22 09:44:25;;;;;;;11.35;3.67;;;19.10;97.00;;;;;;5074862;28;20353;-61
2022/09/22 09:47:06;;;;;;;8.77;3.60;;;19.20;99.90;;;;;;5070628;28;20086;-61
2022/09/22 09:49:33;;;;;;;7.00;3.40;;;;;;;;;;5072039;28;20039;-61
2022/09/22 09:52:02;;;;;;;7.95;3.53;;;19.00;98.00;;;;;;5073747;28;20397;-61
2022/09/22 09:54:29;;;;;;;7.40;3.80;;;;;;;;;;5074581;28;20036;-61
2022/09/22 09:57:11;;;;;;;7.97;3.40;;;19.10;98.10;;;;;;5073958;28;20028;-61
2022/09/22 10:02:47;;;;;;;6.53;3.00;;;19.10;99.90;;;;;;5074133;28;20043;-61
2022/09/22 10:05:25;;;;;;;6.55;2.85;;;19.00;99.90;;;;;;5070485;28;20032;-61
2022/09/22 10:08:02;;;;;;;8.98;3.05;;;19.00;96.70;;;;;;5072007;28;20039;-61
2022/09/22 10:10:28;;;;;;;7.22;2.50;;;19.10;99.90;;;;;;5074534;28;20041;-61
2022/09/22 10:13:03;;;;;;;8.23;2.80;;;19.00;99.90;;;;;;5072577;28;20036;-61
2022/09/22 10:15:30;;;;;;;4.53;2.35;;;18.90;99.90;;;;;;5074060;28;20056;-61
2022/09/22 10:17:56;;;;;;;8.02;2.50;;;19.20;95.70;;;;;;5073788;28;20082;-60
2022/09/22 10:20:31;;;;;;;5.38;2.38;;;18.60;94.20;;;;;;5073900;28;20043;-61
2022/09/22 10:23:21;;;;;;;7.25;2.42;;;18.70;95.50;;;;;;5073995;28;20040;-61
2022/09/22 10:25:48;;;;;;;8.43;2.42;;;20.30;94.00;;;;;;5067602;28;20136;-61
2022/09/22 10:28:16;;;;;;;6.63;2.25;;;18.70;98.90;;;;;;5071322;28;20111;-60
2022/09/22 10:30:45;;;;;;;11.02;2.30;;;19.10;99.00;;;;;;5073498;28;20459;-60
2022/09/22 10:33:18;;;;;;;7.20;2.53;;;18.70;99.80;;;;;;5073354;28;20052;-61
2022/09/22 10:36:08;;;;;;;7.68;2.28;;;18.70;93.80;;;;;;5073615;28;20032;-61
2022/09/22 10:38:38;;;;;;;8.02;2.35;;;19.00;99.50;;;;;;5073325;28;20082;-61
2022/09/22 10:41:12;;;;;;;6.80;2.50;;;18.90;93.00;;;;;;5073517;28;20036;-61
2022/09/22 10:44:10;;;;;;;8.05;2.50;;;18.80;92.70;;;;;;5073167;28;20387;-61
2022/09/22 10:47:08;;;;;;;5.40;2.40;;;19.00;97.90;;;;;;5073894;28;20111;-61
2022/09/22 10:49:45;;;;;;;10.65;2.53;;;18.90;91.40;;;;;;5073431;28;20028;-61
2022/09/22 10:52:19;;;;;;;6.65;2.30;;;18.70;97.00;;;;;;5073361;28;20036;-61
2022/09/22 10:54:53;;;;;;;7.28;2.65;;;18.90;96.70;;;;;;5071192;28;20028;-61
2022/09/22 10:57:29;;;;;;;9.43;3.00;;;19.00;97.10;;;;;;5073501;28;20228;-61
2022/09/22 11:00:16;;;;;;;7.22;3.30;;;19.00;92.00;;;;;;5066806;28;20045;-60
2022/09/22 11:02:54;;;;;;;5.53;3.08;;;18.90;96.60;;;;;;5072551;28;20431;-61
2022/09/22 11:14:22;;;;;;;6.78;3.10;;;19.30;90.50;;;;;;5071967;28;20057;-61
2022/09/22 11:17:02;;;;;;;7.70;3.65;;;19.40;92.00;;;;;;5071815;28;20412;-61
2022/09/22 11:19:39;;;;;;;6.35;3.20;;;19.60;90.70;;;;;;5072519;28;20497;-61
2022/09/22 11:22:25;;;;;;;8.45;3.50;;;19.40;87.60;;;;;;5074092;28;20116;-61
2022/09/22 11:25:14;;;;;;;11.02;3.40;;;20.00;94.20;;;;;;5073076;28;20076;-61
2022/09/22 11:28:04;;;;;;;8.27;3.80;;;19.40;86.40;;;;;;5073566;28;20059;-62
2022/09/22 11:30:39;;;;;;;6.97;3.80;;;19.40;94.40;;;;;;5067446;28;20076;-62
2022/09/22 11:33:16;;;;;;;6.15;3.60;;;19.40;86.50;;;;;;5057596;28;20448;-61
2022/09/22 11:36:30;;;;;;;8.35;3.67;;;19.50;93.80;;;;;;5072297;28;20391;-62
2022/09/22 11:39:32;;;;;;;7.47;3.42;;;19.70;93.50;;;;;;5060472;28;20033;-62
2022/09/22 11:42:19;;;;;;;6.80;3.42;;;19.80;93.10;;;;;;5051541;28;20427;-61
2022/09/22 11:44:45;;;;;;;11.75;4.40;;;;;;;;;;5051811;28;20491;-62
2022/09/22 11:48:06;;;;;;;10.20;3.70;;;19.80;92.50;;;;;;5058619;28;20048;-61
2022/09/22 11:50:58;;;;;;;9.27;3.97;;;19.50;93.00;;;;;;4980749;28;20461;-61
2022/09/22 11:53:32;;;;;;;6.18;3.70;;;19.60;83.90;;;;;;4991956;28;20042;-61
2022/09/22 11:56:23;;;;;;;9.50;4.07;;;19.60;92.30;;;;;;4997821;28;20049;-61
2022/09/22 11:58:51;;;;;;;10.57;4.07;;;19.70;92.50;;;;;;5003002;28;20050;-61
2022/09/22 12:01:20;;;;;;;8.43;3.40;;;19.10;92.30;;;;;;4995508;28;20140;-61
2022/09/22 12:03:54;;;;;;;8.35;3.88;;;19.70;92.20;;;;;;4999428;28;20046;-61
2022/09/22 12:06:25;;;;;;;7.15;3.60;;;19.80;92.30;;;;;;4991786;28;20061;-61
2022/09/22 12:09:01;;;;;;;6.68;3.70;;;20.00;92.00;;;;;;4990649;28;20053;-61
2022/09/22 12:11:27;;;;;;;5.65;3.38;;;20.30;91.50;;;;;;5010291;28;20046;-61
2022/09/22 12:13:55;;;;;;;6.57;3.22;;;20.30;80.40;;;;;;5009428;28;20513;-61
2022/09/22 12:16:28;;;;;;;8.30;3.45;;;20.40;90.90;;;;;;5010231;28;20481;-61
2022/09/22 12:18:59;;;;;;;8.52;3.40;;;20.40;90.70;;;;;;5010032;28;20497;-61
2022/09/22 12:21:50;;;;;;;6.90;3.33;;;21.10;90.20;;;;;;5010111;28;20038;-61
2022/09/22 12:24:16;;;;;;;7.85;3.25;;;20.60;85.70;;;;;;5041516;28;20052;-61
2022/09/22 12:26:46;;;;;;;6.97;2.90;;;20.60;89.80;;;;;;5068580;28;20093;-62
2022/09/22 12:29:15;;;;;;;6.30;2.90;;;20.20;90.20;;;;;;5072802;28;20044;-61
2022/09/22 12:31:44;;;;;;;10.27;3.50;;;20.20;77.70;;;;;;5077009;28;20117;-61
2022/09/22 12:34:38;;;;;;;7.80;3.40;;;20.10;89.60;;;;;;5079343;28;20403;-62
2022/09/22 12:37:10;;;;;;;9.30;3.63;;;20.10;90.20;;;;;;5077915;28;20145;-62
2022/09/22 12:39:42;;;;;;;6.88;3.20;;;20.00;89.70;;;;;;5078382;28;20452;-61
2022/09/22 12:42:27;;;;;;;6.55;3.33;;;20.10;90.70;;;;;;5078382;28;20090;-62
2022/09/22 12:44:58;;;;;;;7.47;3.47;;;20.00;90.00;;;;;;5077875;28;20189;-61
2022/09/22 12:47:42;;;;;;;9.23;4.28;;;20.50;88.80;;;;;;5078179;28;20047;-62
2022/09/22 12:50:23;;;;;;;9.75;3.75;;;20.70;89.30;;;;;;5078205;28;20028;-61
2022/09/22 12:52:52;;;;;;;6.47;3.08;;;20.80;89.00;;;;;;5075483;28;20075;-62
2022/09/22 12:55:26;;;;;;;8.48;3.20;;;20.40;88.90;;;;;;5076656;28;20495;-62
2022/09/22 12:58:01;;;;;;;6.55;3.30;;;20.50;88.80;;;;;;5077152;28;20075;-61
2022/09/22 13:00:42;;;;;;;9.02;3.40;;;20.50;89.20;;;;;;5076523;28;20496;-62
2022/09/22 13:03:29;;;;;;;7.30;3.30;;;20.10;87.80;;;;;;5078153;28;20047;-59
2022/09/22 13:06:03;;;;;;;11.43;3.53;;;20.30;76.40;;;;;;5077951;28;20032;-59
2022/09/22 13:08:35;;;;;;;6.85;3.70;;;20.50;87.70;;;;;;5076875;28;20040;-59
2022/09/22 13:11:08;;;;;;;6.22;3.78;;;20.70;86.40;;;;;;5076174;28;20037;-59
2022/09/22 13:13:36;;;;;;;12.93;3.72;;;21.10;84.30;;;;;;5077954;28;20115;-59
2022/09/22 13:16:23;;;;;;;16.27;3.58;;;20.60;83.90;;;;;;5074435;28;20075;-60
2022/09/22 13:18:52;;;;;;;6.88;3.40;;;;;;;;;;5062706;28;20071;-59
2022/09/22 13:21:27;;;;;;;6.70;3.20;;;21.40;84.30;;;;;;5078842;28;20040;-59
2022/09/22 13:23:59;;;;;;;5.93;3.20;;;21.20;82.70;;;;;;5077718;28;20097;-59
2022/09/22 13:26:39;;;;;;;7.75;3.10;;;21.40;82.70;;;;;;5076624;28;20338;-59
2022/09/22 13:29:12;;;;;;;9.75;3.33;;;21.40;83.00;;;;;;5073164;28;20365;-59
2022/09/22 13:31:53;;;;;;;10.50;3.53;;;21.30;80.70;;;;;;5078665;28;20032;-57
2022/09/22 13:34:30;;;;;;;10.38;3.20;;;21.60;81.00;;;;;;5075723;28;20083;-58
2022/09/22 13:36:59;;;;;;;6.22;3.15;;;;;;;;;;5077727;28;20439;-58
2022/09/22 13:39:31;;;;;;;6.15;3.38;;;21.50;80.20;;;;;;5077952;28;20040;-58